sensor_id;sensor_type;location;lat;lon;timestamp;pressure;altitude;pressure_sealevel;temperature;humidity
73594;BME280;64760;53.404;23.498;2023-05-08T00:00:39;100964.19;;;2.13;75.90
73594;BME280;64760;53.404;23.498;2023-05-08T00:03:16;100957.84;;;2.03;76.60
73594;BME280;64760;53.404;23.498;2023-05-08T00:05:42;100965.50;;;1.95;77.75
73594;BME280;64760;53.404;23.498;2023-05-08T00:08:08;100964.25;;;1.88;78.04
73594;BME280;64760;53.404;23.498;2023-05-08T00:10:34;100967.59;;;1.79;79.11
73594;BME280;64760;53.404;23.498;2023-05-08T00:13:01;100965.16;;;1.76;79.37
73594;BME280;64760;53.404;23.498;2023-05-08T00:15:27;100968.63;;;1.76;80.45
73594;BME280;64760;53.404;23.498;2023-05-08T00:17:54;100961.56;;;1.77;81.51
73594;BME280;64760;53.404;23.498;2023-05-08T00:20:20;100958.81;;;1.78;81.77
73594;BME280;64760;53.404;23.498;2023-05-08T00:22:46;100961.94;;;1.83;82.06
73594;BME280;64760;53.404;23.498;2023-05-08T00:25:13;100968.09;;;1.84;81.16
73594;BME280;64760;53.404;23.498;2023-05-08T00:27:39;100975.28;;;1.82;81.14
73594;BME280;64760;53.404;23.498;2023-05-08T00:30:06;100967.38;;;1.82;81.13
73594;BME280;64760;53.404;23.498;2023-05-08T00:32:33;100960.59;;;1.78;81.70
73594;BME280;64760;53.404;23.498;2023-05-08T00:35:00;100975.94;;;1.73;81.08
73594;BME280;64760;53.404;23.498;2023-05-08T00:37:26;100971.94;;;1.67;82.42
73594;BME280;64760;53.404;23.498;2023-05-08T00:39:52;100971.59;;;1.72;83.46
73594;BME280;64760;53.404;23.498;2023-05-08T00:42:18;100980.31;;;1.61;82.32
73594;BME280;64760;53.404;23.498;2023-05-08T00:44:44;100979.47;;;1.48;82.36
73594;BME280;64760;53.404;23.498;2023-05-08T00:47:11;100973.47;;;1.33;82.66
73594;BME280;64760;53.404;23.498;2023-05-08T00:49:37;100978.91;;;1.19;83.46
73594;BME280;64760;53.404;23.498;2023-05-08T00:52:04;100973.41;;;1.10;85.50
73594;BME280;64760;53.404;23.498;2023-05-08T00:54:35;100972.97;;;1.03;86.53
73594;BME280;64760;53.404;23.498;2023-05-08T00:57:05;100970.66;;;0.99;86.98
73594;BME280;64760;53.404;23.498;2023-05-08T00:59:33;100972.13;;;1.03;87.37
73594;BME280;64760;53.404;23.498;2023-05-08T01:02:01;100981.84;;;1.02;87.81
73594;BME280;64760;53.404;23.498;2023-05-08T01:04:28;100978.44;;;1.00;87.68
73594;BME280;64760;53.404;23.498;2023-05-08T01:06:55;100979.81;;;0.93;88.67
73594;BME280;64760;53.404;23.498;2023-05-08T01:09:21;100978.56;;;0.86;89.12
73594;BME280;64760;53.404;23.498;2023-05-08T01:12:16;100981.75;;;0.91;90.12
73594;BME280;64760;53.404;23.498;2023-05-08T01:15:20;100989.75;;;0.89;89.46
73594;BME280;64760;53.404;23.498;2023-05-08T01:17:55;100986.69;;;0.83;89.38
73594;BME280;64760;53.404;23.498;2023-05-08T01:32:25;101000.03;;;0.55;92.54
73594;BME280;64760;53.404;23.498;2023-05-08T01:40:36;101002.19;;;0.35;93.64
73594;BME280;64760;53.404;23.498;2023-05-08T01:45:53;100996.03;;;0.22;94.37
73594;BME280;64760;53.404;23.498;2023-05-08T01:48:33;101005.00;;;0.20;94.80
73594;BME280;64760;53.404;23.498;2023-05-08T01:51:02;101001.81;;;0.15;95.29
73594;BME280;64760;53.404;23.498;2023-05-08T01:53:35;100995.88;;;0.11;95.83
73594;BME280;64760;53.404;23.498;2023-05-08T01:56:08;101000.41;;;0.09;96.48
73594;BME280;64760;53.404;23.498;2023-05-08T01:58:36;100995.75;;;0.13;98.10
73594;BME280;64760;53.404;23.498;2023-05-08T02:01:04;100999.03;;;0.16;98.43
73594;BME280;64760;53.404;23.498;2023-05-08T02:03:33;101002.72;;;0.14;98.30
73594;BME280;64760;53.404;23.498;2023-05-08T02:06:01;101000.25;;;0.25;98.85
73594;BME280;64760;53.404;23.498;2023-05-08T02:08:28;101002.88;;;0.25;98.83
73594;BME280;64760;53.404;23.498;2023-05-08T02:10:58;101001.22;;;0.24;97.98
73594;BME280;64760;53.404;23.498;2023-05-08T02:13:28;101006.72;;;0.33;98.33
73594;BME280;64760;53.404;23.498;2023-05-08T02:15:57;101007.59;;;0.46;98.26
73594;BME280;64760;53.404;23.498;2023-05-08T02:18:24;101009.69;;;0.41;97.51
73594;BME280;64760;53.404;23.498;2023-05-08T02:20:53;101012.34;;;0.41;97.21
73594;BME280;64760;53.404;23.498;2023-05-08T02:23:24;101018.13;;;0.34;97.48
73594;BME280;64760;53.404;23.498;2023-05-08T02:25:52;101014.19;;;0.27;96.95
73594;BME280;64760;53.404;23.498;2023-05-08T02:28:20;101018.25;;;0.18;96.72
73594;BME280;64760;53.404;23.498;2023-05-08T02:30:48;101021.47;;;0.09;96.75
73594;BME280;64760;53.404;23.498;2023-05-08T02:33:17;101024.91;;;-0.03;97.14
73594;BME280;64760;53.404;23.498;2023-05-08T02:35:44;101025.50;;;-0.12;97.97
73594;BME280;64760;53.404;23.498;2023-05-08T02:38:13;101029.63;;;-0.22;98.58
73594;BME280;64760;53.404;23.498;2023-05-08T02:40:46;101027.50;;;-0.30;99.13
73594;BME280;64760;53.404;23.498;2023-05-08T02:43:13;101023.63;;;-0.38;99.67
73594;BME280;64760;53.404;23.498;2023-05-08T02:45:44;101029.94;;;-0.41;100.00
73594;BME280;64760;53.404;23.498;2023-05-08T02:48:36;101028.34;;;-0.43;100.00
73594;BME280;64760;53.404;23.498;2023-05-08T02:51:17;101030.22;;;-0.45;100.00
73594;BME280;64760;53.404;23.498;2023-05-08T02:53:54;101035.78;;;-0.36;100.00
73594;BME280;64760;53.404;23.498;2023-05-08T02:56:31;101036.63;;;-0.21;100.00
73594;BME280;64760;53.404;23.498;2023-05-08T02:59:11;101027.38;;;-0.14;100.00
73594;BME280;64760;53.404;23.498;2023-05-08T03:02:09;101032.63;;;-0.14;100.00
73594;BME280;64760;53.404;23.498;2023-05-08T03:04:50;101034.34;;;-0.13;100.00
73594;BME280;64760;53.404;23.498;2023-05-08T03:07:20;101035.00;;;-0.10;100.00
73594;BME280;64760;53.404;23.498;2023-05-08T03:09:51;101035.84;;;-0.09;100.00
73594;BME280;64760;53.404;23.498;2023-05-08T03:12:22;101041.75;;;-0.06;100.00
73594;BME280;64760;53.404;23.498;2023-05-08T03:14:59;101040.13;;;0.06;100.00
73594;BME280;64760;53.404;23.498;2023-05-08T03:17:30;101041.56;;;0.24;99.46
73594;BME280;64760;53.404;23.498;2023-05-08T03:20:07;101037.72;;;0.30;98.58
73594;BME280;64760;53.404;23.498;2023-05-08T03:22:36;101043.53;;;0.35;98.09
73594;BME280;64760;53.404;23.498;2023-05-08T03:25:05;101041.13;;;0.44;97.84
73594;BME280;64760;53.404;23.498;2023-05-08T03:27:36;101044.03;;;0.54;97.17
73594;BME280;64760;53.404;23.498;2023-05-08T03:30:04;101043.53;;;0.62;96.62
73594;BME280;64760;53.404;23.498;2023-05-08T03:32:35;101047.94;;;0.61;96.30
73594;BME280;64760;53.404;23.498;2023-05-08T03:35:02;101049.75;;;0.61;96.32
73594;BME280;64760;53.404;23.498;2023-05-08T03:37:31;101055.56;;;0.66;96.15
73594;BME280;64760;53.404;23.498;2023-05-08T03:39:57;101040.00;;;0.75;96.54
73594;BME280;64760;53.404;23.498;2023-05-08T03:42:25;101045.59;;;0.83;95.52
73594;BME280;64760;53.404;23.498;2023-05-08T03:44:53;101046.75;;;0.92;94.71
73594;BME280;64760;53.404;23.498;2023-05-08T03:47:20;101050.25;;;0.92;94.33
73594;BME280;64760;53.404;23.498;2023-05-08T03:49:48;101048.22;;;0.96;94.43
73594;BME280;64760;53.404;23.498;2023-05-08T03:52:16;101053.97;;;1.03;93.91
73594;BME280;64760;53.404;23.498;2023-05-08T03:54:42;101052.69;;;1.08;93.93
73594;BME280;64760;53.404;23.498;2023-05-08T03:57:11;101057.34;;;1.17;94.18
73594;BME280;64760;53.404;23.498;2023-05-08T03:59:50;101055.66;;;1.29;93.57
73594;BME280;64760;53.404;23.498;2023-05-08T04:02:34;101061.69;;;1.43;92.66
73594;BME280;64760;53.404;23.498;2023-05-08T04:05:24;101055.16;;;1.62;91.25
73594;BME280;64760;53.404;23.498;2023-05-08T04:08:02;101059.97;;;1.80;88.89
73594;BME280;64760;53.404;23.498;2023-05-08T04:10:36;101068.28;;;2.00;86.43
73594;BME280;64760;53.404;23.498;2023-05-08T04:13:12;101061.47;;;2.21;83.74
73594;BME280;64760;53.404;23.498;2023-05-08T04:15:50;101068.91;;;2.40;81.15
73594;BME280;64760;53.404;23.498;2023-05-08T04:18:24;101066.63;;;2.59;79.27
73594;BME280;64760;53.404;23.498;2023-05-08T04:20:56;101063.31;;;2.79;77.55
73594;BME280;64760;53.404;23.498;2023-05-08T04:23:25;101062.91;;;2.96;75.66
73594;BME280;64760;53.404;23.498;2023-05-08T04:25:55;101066.56;;;3.06;74.72
73594;BME280;64760;53.404;23.498;2023-05-08T04:28:22;101068.78;;;3.23;73.47
73594;BME280;64760;53.404;23.498;2023-05-08T04:30:49;101077.25;;;3.40;71.81
73594;BME280;64760;53.404;23.498;2023-05-08T04:33:17;101075.09;;;3.56;70.60
73594;BME280;64760;53.404;23.498;2023-05-08T04:35:44;101072.09;;;3.71;68.90
73594;BME280;64760;53.404;23.498;2023-05-08T04:38:12;101078.84;;;3.87;67.87
73594;BME280;64760;53.404;23.498;2023-05-08T04:40:39;101080.41;;;4.00;67.14
73594;BME280;64760;53.404;23.498;2023-05-08T04:43:08;101082.22;;;4.11;66.54
73594;BME280;64760;53.404;23.498;2023-05-08T04:45:35;101084.72;;;4.23;65.84
73594;BME280;64760;53.404;23.498;2023-05-08T04:48:01;101085.69;;;4.34;64.28
73594;BME280;64760;53.404;23.498;2023-05-08T04:50:28;101082.41;;;4.41;63.90
73594;BME280;64760;53.404;23.498;2023-05-08T04:52:54;101085.16;;;4.51;63.97
73594;BME280;64760;53.404;23.498;2023-05-08T04:55:21;101082.09;;;4.66;62.93
73594;BME280;64760;53.404;23.498;2023-05-08T04:57:47;101085.09;;;4.73;62.29
73594;BME280;64760;53.404;23.498;2023-05-08T05:00:15;101089.53;;;4.84;61.42
73594;BME280;64760;53.404;23.498;2023-05-08T05:02:43;101093.44;;;5.00;61.17
73594;BME280;64760;53.404;23.498;2023-05-08T05:05:10;101092.94;;;5.06;61.09
73594;BME280;64760;53.404;23.498;2023-05-08T05:07:38;101092.63;;;5.20;61.15
73594;BME280;64760;53.404;23.498;2023-05-08T05:10:04;101094.38;;;5.31;60.67
73594;BME280;64760;53.404;23.498;2023-05-08T05:12:33;101090.94;;;5.40;60.49
73594;BME280;64760;53.404;23.498;2023-05-08T05:14:59;101091.00;;;5.50;59.95
73594;BME280;64760;53.404;23.498;2023-05-08T05:17:30;101097.06;;;5.61;59.59
73594;BME280;64760;53.404;23.498;2023-05-08T05:19:56;101094.34;;;5.73;59.35
73594;BME280;64760;53.404;23.498;2023-05-08T05:22:23;101104.91;;;5.84;59.03
73594;BME280;64760;53.404;23.498;2023-05-08T05:24:49;101095.31;;;5.92;58.56
73594;BME280;64760;53.404;23.498;2023-05-08T05:31:33;101109.34;;;6.34;57.32
73594;BME280;64760;53.404;23.498;2023-05-08T05:34:00;101105.47;;;6.48;56.67
73594;BME280;64760;53.404;23.498;2023-05-08T05:36:27;101110.53;;;6.60;56.71
73594;BME280;64760;53.404;23.498;2023-05-08T05:38:54;101111.69;;;6.68;57.16
73594;BME280;64760;53.404;23.498;2023-05-08T05:41:21;101102.28;;;6.83;56.34
73594;BME280;64760;53.404;23.498;2023-05-08T05:43:47;101106.63;;;6.93;56.09
73594;BME280;64760;53.404;23.498;2023-05-08T05:46:14;101109.72;;;6.98;55.52
73594;BME280;64760;53.404;23.498;2023-05-08T05:48:41;101113.38;;;7.17;55.23
73594;BME280;64760;53.404;23.498;2023-05-08T05:51:09;101109.03;;;7.35;54.91
73594;BME280;64760;53.404;23.498;2023-05-08T05:53:36;101111.41;;;7.47;55.14
73594;BME280;64760;53.404;23.498;2023-05-08T05:56:02;101120.75;;;7.61;54.04
73594;BME280;64760;53.404;23.498;2023-05-08T05:58:30;101111.78;;;7.72;54.29
73594;BME280;64760;53.404;23.498;2023-05-08T06:00:58;101110.75;;;7.82;53.87
73594;BME280;64760;53.404;23.498;2023-05-08T06:03:26;101118.38;;;8.04;54.07
73594;BME280;64760;53.404;23.498;2023-05-08T06:05:53;101112.41;;;8.20;53.72
73594;BME280;64760;53.404;23.498;2023-05-08T06:08:20;101117.47;;;8.33;53.85
73594;BME280;64760;53.404;23.498;2023-05-08T06:10:46;101115.59;;;8.43;53.12
73594;BME280;64760;53.404;23.498;2023-05-08T06:13:13;101118.59;;;8.58;53.07
73594;BME280;64760;53.404;23.498;2023-05-08T06:15:40;101118.66;;;8.75;51.40
73594;BME280;64760;53.404;23.498;2023-05-08T06:18:07;101120.25;;;8.86;51.44
73594;BME280;64760;53.404;23.498;2023-05-08T06:20:36;101123.84;;;8.94;50.83
73594;BME280;64760;53.404;23.498;2023-05-08T06:23:03;101125.00;;;9.10;49.51
73594;BME280;64760;53.404;23.498;2023-05-08T06:25:29;101122.09;;;9.21;48.93
73594;BME280;64760;53.404;23.498;2023-05-08T06:27:57;101130.03;;;9.30;48.05
73594;BME280;64760;53.404;23.498;2023-05-08T06:30:24;101130.31;;;9.45;47.23
73594;BME280;64760;53.404;23.498;2023-05-08T06:32:50;101130.44;;;9.61;47.19
73594;BME280;64760;53.404;23.498;2023-05-08T06:35:19;101129.19;;;9.73;46.92
73594;BME280;64760;53.404;23.498;2023-05-08T06:37:45;101125.41;;;9.84;46.45
73594;BME280;64760;53.404;23.498;2023-05-08T06:40:12;101128.31;;;9.90;46.31
73594;BME280;64760;53.404;23.498;2023-05-08T06:42:39;101126.34;;;10.01;44.67
73594;BME280;64760;53.404;23.498;2023-05-08T06:45:07;101135.94;;;10.11;45.23
73594;BME280;64760;53.404;23.498;2023-05-08T06:47:34;101134.81;;;10.14;44.56
73594;BME280;64760;53.404;23.498;2023-05-08T06:50:00;101131.50;;;10.20;45.19
73594;BME280;64760;53.404;23.498;2023-05-08T06:52:27;101137.59;;;10.30;44.41
73594;BME280;64760;53.404;23.498;2023-05-08T06:54:54;101126.63;;;10.49;42.83
73594;BME280;64760;53.404;23.498;2023-05-08T06:57:20;101136.41;;;10.66;42.52
73594;BME280;64760;53.404;23.498;2023-05-08T06:59:47;101132.56;;;10.77;41.21
73594;BME280;64760;53.404;23.498;2023-05-08T07:02:13;101132.44;;;10.87;41.91
73594;BME280;64760;53.404;23.498;2023-05-08T07:04:42;101129.78;;;10.95;41.30
73594;BME280;64760;53.404;23.498;2023-05-08T07:07:09;101134.31;;;11.02;41.03
73594;BME280;64760;53.404;23.498;2023-05-08T07:09:36;101139.00;;;11.08;40.61
73594;BME280;64760;53.404;23.498;2023-05-08T07:12:03;101141.72;;;11.16;41.49
73594;BME280;64760;53.404;23.498;2023-05-08T07:14:29;101133.31;;;11.27;40.78
73594;BME280;64760;53.404;23.498;2023-05-08T07:16:56;101136.84;;;11.36;38.78
73594;BME280;64760;53.404;23.498;2023-05-08T07:19:23;101144.75;;;11.54;37.41
73594;BME280;64760;53.404;23.498;2023-05-08T07:21:50;101144.22;;;11.66;36.85
73594;BME280;64760;53.404;23.498;2023-05-08T07:24:17;101144.44;;;11.73;35.68
73594;BME280;64760;53.404;23.498;2023-05-08T07:26:45;101137.38;;;11.72;36.22
73594;BME280;64760;53.404;23.498;2023-05-08T07:29:11;101145.44;;;11.80;35.46
73594;BME280;64760;53.404;23.498;2023-05-08T07:31:38;101152.16;;;11.84;35.33
73594;BME280;64760;53.404;23.498;2023-05-08T07:34:06;101149.78;;;11.89;35.81
73594;BME280;64760;53.404;23.498;2023-05-08T07:36:32;101139.91;;;11.90;35.78
73594;BME280;64760;53.404;23.498;2023-05-08T07:38:59;101143.38;;;11.98;36.76
73594;BME280;64760;53.404;23.498;2023-05-08T07:41:25;101144.88;;;12.09;35.67
73594;BME280;64760;53.404;23.498;2023-05-08T07:43:51;101130.91;;;12.21;33.69
73594;BME280;64760;53.404;23.498;2023-05-08T07:46:18;101137.75;;;12.32;33.92
73594;BME280;64760;53.404;23.498;2023-05-08T07:48:46;101137.06;;;12.30;33.96
73594;BME280;64760;53.404;23.498;2023-05-08T07:51:12;101134.06;;;12.33;33.81
73594;BME280;64760;53.404;23.498;2023-05-08T07:53:38;101137.06;;;12.30;33.58
73594;BME280;64760;53.404;23.498;2023-05-08T07:56:05;101122.00;;;12.21;31.26
73594;BME280;64760;53.404;23.498;2023-05-08T07:58:32;101130.75;;;12.15;31.99
73594;BME280;64760;53.404;23.498;2023-05-08T08:00:58;101127.31;;;12.37;32.94
73594;BME280;64760;53.404;23.498;2023-05-08T08:03:24;101132.63;;;12.53;33.24
73594;BME280;64760;53.404;23.498;2023-05-08T08:05:51;101139.03;;;12.52;31.72
73594;BME280;64760;53.404;23.498;2023-05-08T08:08:17;101134.63;;;12.59;31.26
73594;BME280;64760;53.404;23.498;2023-05-08T08:10:44;101132.56;;;12.69;30.63
73594;BME280;64760;53.404;23.498;2023-05-08T08:13:10;101130.31;;;12.81;30.74
73594;BME280;64760;53.404;23.498;2023-05-08T08:15:37;101142.56;;;12.84;30.04
73594;BME280;64760;53.404;23.498;2023-05-08T08:18:03;101115.91;;;12.66;28.69
73594;BME280;64760;53.404;23.498;2023-05-08T08:20:30;101134.94;;;12.64;29.80
73594;BME280;64760;53.404;23.498;2023-05-08T08:22:56;101135.22;;;12.78;29.59
73594;BME280;64760;53.404;23.498;2023-05-08T08:25:23;101130.16;;;12.75;29.50
73594;BME280;64760;53.404;23.498;2023-05-08T08:27:49;101123.78;;;12.76;30.03
73594;BME280;64760;53.404;23.498;2023-05-08T08:30:16;101129.22;;;12.90;30.35
73594;BME280;64760;53.404;23.498;2023-05-08T08:32:43;101117.66;;;12.90;30.31
73594;BME280;64760;53.404;23.498;2023-05-08T08:35:09;101130.69;;;13.01;30.87
73594;BME280;64760;53.404;23.498;2023-05-08T08:37:35;101122.84;;;12.91;30.13
73594;BME280;64760;53.404;23.498;2023-05-08T08:40:02;101126.97;;;13.02;30.63
73594;BME280;64760;53.404;23.498;2023-05-08T08:42:29;101119.53;;;13.12;30.86
73594;BME280;64760;53.404;23.498;2023-05-08T08:48:00;101123.88;;;13.21;30.59
73594;BME280;64760;53.404;23.498;2023-05-08T08:50:30;101120.78;;;13.01;30.81
73594;BME280;64760;53.404;23.498;2023-05-08T08:53:09;101125.03;;;12.88;31.43
73594;BME280;64760;53.404;23.498;2023-05-08T08:55:39;101128.97;;;13.08;32.19
73594;BME280;64760;53.404;23.498;2023-05-08T08:58:30;101125.88;;;13.19;31.20
73594;BME280;64760;53.404;23.498;2023-05-08T09:00:59;101129.94;;;13.15;31.33
73594;BME280;64760;53.404;23.498;2023-05-08T09:03:31;101126.56;;;13.21;30.85
73594;BME280;64760;53.404;23.498;2023-05-08T09:05:59;101129.63;;;13.10;30.40
73594;BME280;64760;53.404;23.498;2023-05-08T09:08:28;101118.59;;;12.97;30.42
73594;BME280;64760;53.404;23.498;2023-05-08T09:10:55;101123.94;;;13.05;30.54
73594;BME280;64760;53.404;23.498;2023-05-08T09:13:22;101124.84;;;12.97;31.12
73594;BME280;64760;53.404;23.498;2023-05-08T09:15:48;101116.31;;;13.16;31.72
73594;BME280;64760;53.404;23.498;2023-05-08T09:18:15;101119.56;;;13.04;30.51
73594;BME280;64760;53.404;23.498;2023-05-08T09:20:43;101120.06;;;13.30;31.16
73594;BME280;64760;53.404;23.498;2023-05-08T09:23:10;101120.66;;;13.40;31.05
73594;BME280;64760;53.404;23.498;2023-05-08T09:25:48;101114.78;;;13.59;31.88
73594;BME280;64760;53.404;23.498;2023-05-08T09:28:21;101117.31;;;13.76;30.25
73594;BME280;64760;53.404;23.498;2023-05-08T09:30:53;101110.06;;;13.76;30.79
73594;BME280;64760;53.404;23.498;2023-05-08T09:33:24;101121.78;;;13.83;30.64
73594;BME280;64760;53.404;23.498;2023-05-08T09:35:52;101110.75;;;13.93;30.95
73594;BME280;64760;53.404;23.498;2023-05-08T09:41:13;101111.50;;;14.16;31.62
73594;BME280;64760;53.404;23.498;2023-05-08T09:43:41;101112.72;;;14.28;30.58
73594;BME280;64760;53.404;23.498;2023-05-08T09:46:21;101101.09;;;14.13;30.15
73594;BME280;64760;53.404;23.498;2023-05-08T09:48:54;101102.66;;;14.22;31.05
73594;BME280;64760;53.404;23.498;2023-05-08T09:51:21;101094.56;;;14.22;30.82
73594;BME280;64760;53.404;23.498;2023-05-08T09:53:52;101091.59;;;14.32;30.65
73594;BME280;64760;53.404;23.498;2023-05-08T09:56:38;101096.78;;;14.33;30.13
73594;BME280;64760;53.404;23.498;2023-05-08T09:59:21;101099.06;;;14.44;30.46
73594;BME280;64760;53.404;23.498;2023-05-08T10:01:49;101092.78;;;14.58;30.14
73594;BME280;64760;53.404;23.498;2023-05-08T10:04:16;101100.22;;;14.71;29.11
73594;BME280;64760;53.404;23.498;2023-05-08T10:06:43;101094.50;;;14.81;28.88
73594;BME280;64760;53.404;23.498;2023-05-08T10:09:13;101091.44;;;14.69;30.16
73594;BME280;64760;53.404;23.498;2023-05-08T10:11:48;101081.81;;;14.45;28.90
73594;BME280;64760;53.404;23.498;2023-05-08T10:14:18;101091.22;;;14.20;29.14
73594;BME280;64760;53.404;23.498;2023-05-08T10:16:47;101080.72;;;14.10;29.14
73594;BME280;64760;53.404;23.498;2023-05-08T10:19:23;101079.50;;;14.28;29.35
73594;BME280;64760;53.404;23.498;2023-05-08T10:21:52;101086.97;;;14.40;29.60
73594;BME280;64760;53.404;23.498;2023-05-08T10:24:26;101084.63;;;14.37;28.56
73594;BME280;64760;53.404;23.498;2023-05-08T10:27:11;101074.00;;;14.50;29.90
73594;BME280;64760;53.404;23.498;2023-05-08T10:29:53;101071.31;;;14.50;29.18
73594;BME280;64760;53.404;23.498;2023-05-08T10:32:21;101070.78;;;14.40;28.41
73594;BME280;64760;53.404;23.498;2023-05-08T10:34:57;101067.88;;;14.42;29.24
73594;BME280;64760;53.404;23.498;2023-05-08T10:37:28;101062.81;;;14.68;29.93
73594;BME280;64760;53.404;23.498;2023-05-08T10:39:54;101070.84;;;14.83;28.93
73594;BME280;64760;53.404;23.498;2023-05-08T10:42:22;101070.91;;;14.89;27.68
73594;BME280;64760;53.404;23.498;2023-05-08T10:44:49;101068.16;;;14.83;27.08
73594;BME280;64760;53.404;23.498;2023-05-08T10:47:27;101066.78;;;14.93;27.29
73594;BME280;64760;53.404;23.498;2023-05-08T10:55:32;101068.03;;;14.91;27.44
73594;BME280;64760;53.404;23.498;2023-05-08T10:58:12;101063.78;;;15.03;27.58
73594;BME280;64760;53.404;23.498;2023-05-08T11:03:19;101062.50;;;14.99;26.18
73594;BME280;64760;53.404;23.498;2023-05-08T11:05:49;101056.97;;;15.07;27.00
73594;BME280;64760;53.404;23.498;2023-05-08T11:08:20;101053.75;;;15.18;27.91
73594;BME280;64760;53.404;23.498;2023-05-08T11:13:31;101052.34;;;15.01;26.82
73594;BME280;64760;53.404;23.498;2023-05-08T11:15:58;101059.00;;;15.05;26.49
73594;BME280;64760;53.404;23.498;2023-05-08T11:18:27;101056.19;;;15.13;27.28
73594;BME280;64760;53.404;23.498;2023-05-08T11:20:58;101042.75;;;15.20;26.67
73594;BME280;64760;53.404;23.498;2023-05-08T11:23:32;101045.38;;;15.13;25.83
73594;BME280;64760;53.404;23.498;2023-05-08T11:26:11;101048.47;;;14.89;25.59
73594;BME280;64760;53.404;23.498;2023-05-08T11:29:00;101047.06;;;14.72;25.06
73594;BME280;64760;53.404;23.498;2023-05-08T11:31:48;101044.78;;;14.54;24.94
73594;BME280;64760;53.404;23.498;2023-05-08T11:37:11;101041.66;;;14.72;26.61
73594;BME280;64760;53.404;23.498;2023-05-08T11:39:42;101044.34;;;14.93;25.80
73594;BME280;64760;53.404;23.498;2023-05-08T11:42:40;101033.94;;;15.11;25.69
73594;BME280;64760;53.404;23.498;2023-05-08T11:45:08;101039.63;;;15.16;26.50
73594;BME280;64760;53.404;23.498;2023-05-08T11:47:40;101037.09;;;15.15;25.95
73594;BME280;64760;53.404;23.498;2023-05-08T11:50:09;101030.09;;;15.20;26.01
73594;BME280;64760;53.404;23.498;2023-05-08T11:52:37;101035.38;;;15.07;24.76
73594;BME280;64760;53.404;23.498;2023-05-08T11:55:06;101031.88;;;15.13;25.13
73594;BME280;64760;53.404;23.498;2023-05-08T11:57:33;101028.81;;;15.16;26.20
73594;BME280;64760;53.404;23.498;2023-05-08T12:00:04;101030.53;;;15.24;25.32
73594;BME280;64760;53.404;23.498;2023-05-08T12:02:42;101021.34;;;15.18;24.50
73594;BME280;64760;53.404;23.498;2023-05-08T12:05:09;101032.94;;;15.12;25.57
73594;BME280;64760;53.404;23.498;2023-05-08T12:07:45;101031.50;;;15.16;25.92
73594;BME280;64760;53.404;23.498;2023-05-08T12:10:13;101027.53;;;15.12;24.93
73594;BME280;64760;53.404;23.498;2023-05-08T12:12:41;101020.06;;;15.14;24.89
73594;BME280;64760;53.404;23.498;2023-05-08T12:15:09;101026.56;;;14.98;25.58
73594;BME280;64760;53.404;23.498;2023-05-08T12:17:35;101016.47;;;15.07;24.94
73594;BME280;64760;53.404;23.498;2023-05-08T12:20:17;101010.09;;;15.15;24.97
73594;BME280;64760;53.404;23.498;2023-05-08T12:22:51;101009.28;;;15.21;25.39
73594;BME280;64760;53.404;23.498;2023-05-08T12:25:18;101014.25;;;15.17;25.33
73594;BME280;64760;53.404;23.498;2023-05-08T12:27:44;101019.06;;;15.22;25.15
73594;BME280;64760;53.404;23.498;2023-05-08T12:30:12;101019.19;;;15.35;24.71
73594;BME280;64760;53.404;23.498;2023-05-08T12:32:41;101011.28;;;15.33;23.83
73594;BME280;64760;53.404;23.498;2023-05-08T12:35:08;101013.94;;;15.27;24.53
73594;BME280;64760;53.404;23.498;2023-05-08T12:37:35;101010.00;;;15.29;24.83
73594;BME280;64760;53.404;23.498;2023-05-08T12:40:02;101008.97;;;15.30;24.70
73594;BME280;64760;53.404;23.498;2023-05-08T12:42:47;101012.09;;;15.06;24.97
73594;BME280;64760;53.404;23.498;2023-05-08T12:47:47;101011.22;;;15.27;25.18
73594;BME280;64760;53.404;23.498;2023-05-08T12:50:15;101002.41;;;15.39;24.62
73594;BME280;64760;53.404;23.498;2023-05-08T12:52:42;100992.09;;;15.49;25.79
73594;BME280;64760;53.404;23.498;2023-05-08T12:55:22;100998.84;;;15.60;24.40
73594;BME280;64760;53.404;23.498;2023-05-08T12:57:49;100995.13;;;15.68;25.15
73594;BME280;64760;53.404;23.498;2023-05-08T13:00:17;100994.97;;;15.76;25.68
73594;BME280;64760;53.404;23.498;2023-05-08T13:02:53;100990.03;;;15.92;26.20
73594;BME280;64760;53.404;23.498;2023-05-08T13:05:21;100996.53;;;15.98;25.53
73594;BME280;64760;53.404;23.498;2023-05-08T13:07:51;101000.59;;;15.81;24.65
73594;BME280;64760;53.404;23.498;2023-05-08T13:10:17;100990.47;;;15.55;24.75
73594;BME280;64760;53.404;23.498;2023-05-08T13:12:44;100991.19;;;15.42;24.45
73594;BME280;64760;53.404;23.498;2023-05-08T13:15:11;100988.78;;;15.54;26.48
73594;BME280;64760;53.404;23.498;2023-05-08T13:17:37;100986.22;;;15.74;26.30
73594;BME280;64760;53.404;23.498;2023-05-08T13:20:04;100980.88;;;15.87;25.92
73594;BME280;64760;53.404;23.498;2023-05-08T13:22:31;100981.75;;;15.94;26.25
73594;BME280;64760;53.404;23.498;2023-05-08T13:24:57;100990.69;;;15.94;25.50
73594;BME280;64760;53.404;23.498;2023-05-08T13:27:23;100986.97;;;15.95;25.22
73594;BME280;64760;53.404;23.498;2023-05-08T13:29:50;100978.84;;;15.95;25.32
73594;BME280;64760;53.404;23.498;2023-05-08T13:32:16;100970.75;;;15.95;25.77
73594;BME280;64760;53.404;23.498;2023-05-08T13:34:43;100973.00;;;15.92;25.34
73594;BME280;64760;53.404;23.498;2023-05-08T13:37:09;100976.06;;;15.82;25.07
73594;BME280;64760;53.404;23.498;2023-05-08T13:39:36;100976.72;;;15.84;25.71
73594;BME280;64760;53.404;23.498;2023-05-08T13:42:03;100966.97;;;15.90;25.66